createdAt,value
2022-11-26T00:00:03.044Z,100864.75
2022-11-26T00:00:34.484Z,100865.84
2022-11-26T00:01:05.971Z,100862.84
2022-11-26T00:01:37.391Z,100863.66
2022-11-26T00:02:08.883Z,100869.41
2022-11-26T00:02:40.439Z,100872.69
2022-11-26T00:03:12.001Z,100870.22
2022-11-26T00:03:43.474Z,100869.13
2022-11-26T00:04:14.970Z,100869.41
2022-11-26T00:04:46.401Z,100867.75
2022-11-26T00:05:17.818Z,100870.78
2022-11-26T00:05:49.209Z,100872.94
2022-11-26T00:06:20.727Z,100868.84
2022-11-26T00:06:52.142Z,100866.66
2022-11-26T00:07:23.601Z,100875.94
2022-11-26T00:07:55.189Z,100868.03
2022-11-26T00:08:26.740Z,100870.75
2022-11-26T00:08:58.216Z,100870.22
2022-11-26T00:09:29.726Z,100870.75
2022-11-26T00:10:01.242Z,100875.13
2022-11-26T00:10:32.779Z,100868.56
2022-11-26T00:11:04.230Z,100871.31
2022-11-26T00:11:35.637Z,100875.41
2022-11-26T00:12:07.103Z,100866.66
2022-11-26T00:12:38.512Z,100868.56
2022-11-26T00:13:09.926Z,100871.84
2022-11-26T00:13:41.385Z,100868.31
2022-11-26T00:14:12.796Z,100863.41
2022-11-26T00:14:44.261Z,100873.78
2022-11-26T00:15:15.637Z,100877.88
2022-11-26T00:15:47.057Z,100871.59
2022-11-26T00:16:18.485Z,100872.94
2022-11-26T00:16:50.002Z,100871.03
2022-11-26T00:17:21.473Z,100868.56
2022-11-26T00:17:52.861Z,100874.03
2022-11-26T00:18:24.271Z,100883.06
2022-11-26T00:18:55.717Z,100880.59
2022-11-26T00:19:27.112Z,100872.13
2022-11-26T00:19:58.579Z,100875.41
2022-11-26T00:20:30.033Z,100880.31
2022-11-26T00:21:01.454Z,100886.34
2022-11-26T00:21:32.860Z,100882.25
2022-11-26T00:22:04.253Z,100884.16
2022-11-26T00:22:35.646Z,100881.41
2022-11-26T00:23:07.047Z,100878.41
2022-11-26T00:23:38.469Z,100886.59
2022-11-26T00:24:09.882Z,100883.31
2022-11-26T00:24:41.263Z,100881.16
2022-11-26T00:25:12.680Z,100891.81
2022-11-26T00:25:44.104Z,100889.91
2022-11-26T00:26:15.576Z,100885.78
2022-11-26T00:26:47.058Z,100884.97
2022-11-26T00:27:18.423Z,100886.63
2022-11-26T00:27:49.899Z,100884.16
2022-11-26T00:28:21.303Z,100881.41
2022-11-26T00:28:52.756Z,100886.06
2022-11-26T00:29:24.237Z,100884.44
2022-11-26T00:29:55.668Z,100889.34
2022-11-26T00:30:27.044Z,100892.63
2022-11-26T00:30:58.427Z,100891.81
2022-11-26T00:31:29.982Z,100889.06
2022-11-26T00:32:01.465Z,100892.06
2022-11-26T00:32:32.965Z,100894.00
2022-11-26T00:33:04.358Z,100890.97
2022-11-26T00:33:35.757Z,100893.72
2022-11-26T00:34:07.213Z,100888.25
2022-11-26T00:34:38.998Z,100892.31
2022-11-26T00:35:10.671Z,100890.72
2022-11-26T00:35:42.102Z,100901.09
2022-11-26T00:36:13.534Z,100903.56
2022-11-26T00:36:44.952Z,100891.25
2022-11-26T00:37:16.369Z,100894.25
2022-11-26T00:37:47.747Z,100890.97
2022-11-26T00:38:19.143Z,100895.09
2022-11-26T00:38:50.610Z,100894.25
2022-11-26T00:39:22.084Z,100896.19
2022-11-26T00:39:53.568Z,100891.53
2022-11-26T00:40:24.996Z,100894.25
2022-11-26T00:40:56.416Z,100902.47
2022-11-26T00:41:27.851Z,100901.38
2022-11-26T00:41:59.221Z,100901.09
2022-11-26T00:42:30.668Z,100904.09
2022-11-26T00:43:02.249Z,100902.19
2022-11-26T00:43:33.969Z,100903.28
2022-11-26T00:44:05.404Z,100904.91
2022-11-26T00:44:37.205Z,100904.38
2022-11-26T00:45:08.856Z,100909.56
2022-11-26T00:45:40.311Z,100910.38
2022-11-26T00:46:11.898Z,100907.91
2022-11-26T00:46:43.421Z,100909.84
2022-11-26T00:47:14.845Z,100917.22
2022-11-26T00:47:46.241Z,100907.66
2022-11-26T00:48:17.661Z,100910.09
2022-11-26T00:48:49.062Z,100910.66
2022-11-26T00:49:20.489Z,100911.75
2022-11-26T00:49:51.967Z,100909.56
2022-11-26T00:50:23.408Z,100911.19
2022-11-26T00:50:54.784Z,100908.19
2022-11-26T00:51:26.214Z,100907.91
2022-11-26T00:51:57.630Z,100908.75
2022-11-26T00:52:29.106Z,100907.09
2022-11-26T00:53:00.554Z,100910.94
2022-11-26T00:53:31.943Z,100913.94
2022-11-26T00:54:03.467Z,100910.94
2022-11-26T00:54:34.933Z,100921.59
2022-11-26T00:55:06.634Z,100921.31
2022-11-26T00:55:38.040Z,100913.38
2022-11-26T00:56:09.486Z,100916.13
2022-11-26T00:56:40.893Z,100915.84
2022-11-26T00:57:12.324Z,100916.66
2022-11-26T00:57:43.754Z,100917.22
2022-11-26T00:58:15.151Z,100914.47
2022-11-26T00:58:46.565Z,100923.22
2022-11-26T00:59:17.967Z,100924.31
2022-11-26T00:59:49.360Z,100918.56
2022-11-26T01:00:20.827Z,100912.28
2022-11-26T01:00:52.304Z,100915.56
2022-11-26T01:01:23.838Z,100918.84
2022-11-26T01:01:55.357Z,100916.38
2022-11-26T01:02:26.880Z,100913.38
2022-11-26T01:02:58.351Z,100920.50
2022-11-26T01:03:29.805Z,100921.84
2022-11-26T01:04:01.233Z,100917.22
2022-11-26T01:04:32.637Z,100921.31
2022-11-26T01:05:04.103Z,100916.66
2022-11-26T01:05:35.491Z,100926.22
2022-11-26T01:06:06.937Z,100927.59
2022-11-26T01:06:38.355Z,100929.78
2022-11-26T01:07:09.875Z,100927.59
2022-11-26T01:07:41.708Z,100931.41
2022-11-26T01:08:13.194Z,100921.59
2022-11-26T01:08:44.567Z,100928.69
2022-11-26T01:09:16.042Z,100936.88
2022-11-26T01:09:47.519Z,100931.69
2022-11-26T01:10:18.921Z,100933.59
2022-11-26T01:10:50.344Z,100933.06
2022-11-26T01:11:21.767Z,100933.88
2022-11-26T01:11:54.459Z,100939.88
2022-11-26T01:12:26.101Z,100932.50
2022-11-26T01:12:57.487Z,100944.53
2022-11-26T01:13:28.905Z,100940.16
2022-11-26T01:14:00.388Z,100943.72
2022-11-26T01:14:31.773Z,100944.81
2022-11-26T01:15:03.146Z,100950.00
2022-11-26T01:15:34.595Z,100946.72
2022-11-26T01:16:06.045Z,100943.16
2022-11-26T01:16:37.620Z,100944.81
2022-11-26T01:17:09.238Z,100945.63
2022-11-26T01:17:40.691Z,100952.72
2022-11-26T01:18:12.109Z,100951.63
2022-11-26T01:18:43.485Z,100945.63
2022-11-26T01:19:14.955Z,100954.09
2022-11-26T01:19:46.366Z,100955.19
2022-11-26T01:20:21.501Z,100949.72
2022-11-26T01:20:55.511Z,100954.09
2022-11-26T01:21:26.940Z,100951.63
2022-11-26T01:21:58.320Z,100953.81
2022-11-26T01:22:29.731Z,100953.81
2022-11-26T01:23:01.223Z,100954.66
2022-11-26T01:23:32.649Z,100957.66
2022-11-26T01:24:04.045Z,100953.81
2022-11-26T01:24:35.747Z,100962.03
2022-11-26T01:25:07.387Z,100955.75
2022-11-26T01:25:38.803Z,100962.03
2022-11-26T01:26:10.226Z,100966.94
2022-11-26T01:26:41.604Z,100955.75
2022-11-26T01:27:13.019Z,100959.56
2022-11-26T01:27:44.407Z,100955.47
2022-11-26T01:28:15.814Z,100961.47
2022-11-26T01:28:47.267Z,100951.91
2022-11-26T01:29:18.700Z,100958.19
2022-11-26T01:29:50.115Z,100963.94
2022-11-26T01:30:21.601Z,100966.66
2022-11-26T01:30:53.042Z,100962.31
2022-11-26T01:31:24.512Z,100962.84
2022-11-26T01:31:56.021Z,100963.38
2022-11-26T01:32:29.591Z,100966.41
2022-11-26T01:33:01.211Z,100965.56
2022-11-26T01:33:32.667Z,100965.31
2022-11-26T01:34:04.116Z,100966.41
2022-11-26T01:34:35.712Z,100967.75
2022-11-26T01:35:07.211Z,100966.66
2022-11-26T01:35:38.620Z,100964.22
2022-11-26T01:36:10.017Z,100971.31
2022-11-26T01:36:41.451Z,100964.75
2022-11-26T01:37:12.882Z,100970.78
2022-11-26T01:37:44.292Z,100968.03
2022-11-26T01:38:15.706Z,100968.84
2022-11-26T01:38:47.179Z,100977.59
2022-11-26T01:39:18.611Z,100968.03
2022-11-26T01:39:50.065Z,100972.97
2022-11-26T01:40:21.517Z,100969.13
2022-11-26T01:40:52.995Z,100978.97
2022-11-26T01:41:24.411Z,100973.50
2022-11-26T01:41:55.814Z,100974.31
2022-11-26T01:42:27.204Z,100976.78
2022-11-26T01:42:58.603Z,100978.44
2022-11-26T01:43:30.099Z,100982.53
2022-11-26T01:44:01.503Z,100978.69
2022-11-26T01:44:33.014Z,100977.88
2022-11-26T01:45:04.436Z,100983.63
2022-11-26T01:45:35.907Z,100979.50
2022-11-26T01:46:07.400Z,100981.69
2022-11-26T01:46:38.879Z,100976.25
2022-11-26T01:47:10.265Z,100978.97
2022-11-26T01:47:41.682Z,100977.34
2022-11-26T01:48:13.178Z,100975.97
2022-11-26T01:48:44.593Z,100978.44
2022-11-26T01:49:15.967Z,100978.97
2022-11-26T01:49:47.388Z,100984.72
2022-11-26T01:50:18.833Z,100988.25
2022-11-26T01:50:50.250Z,100980.59
2022-11-26T01:51:21.664Z,100983.88
2022-11-26T01:51:53.142Z,100984.97
2022-11-26T01:52:24.591Z,100986.34
2022-11-26T01:52:55.966Z,100984.16
2022-11-26T01:53:27.344Z,100985.81
2022-11-26T01:53:58.748Z,100990.72
2022-11-26T01:54:30.139Z,100981.97
2022-11-26T01:55:01.520Z,100992.63
2022-11-26T01:55:32.942Z,100993.72
2022-11-26T01:56:04.321Z,100989.63
2022-11-26T01:56:35.753Z,100992.09
2022-11-26T01:57:07.153Z,100991.53
2022-11-26T01:57:38.553Z,100991.81
2022-11-26T01:58:10.114Z,100983.34
2022-11-26T01:58:41.495Z,100983.88
2022-11-26T01:59:13.021Z,100993.19
2022-11-26T01:59:44.516Z,100992.38
2022-11-26T02:00:15.949Z,100996.47
2022-11-26T02:00:47.496Z,100993.72
2022-11-26T02:01:19.041Z,100991.00
2022-11-26T02:01:50.508Z,100994.00
2022-11-26T02:02:21.949Z,100993.19
2022-11-26T02:02:53.391Z,100997.28
2022-11-26T02:03:24.803Z,100997.00
2022-11-26T02:03:56.263Z,100998.09
2022-11-26T02:04:27.668Z,100997.56
2022-11-26T02:04:59.070Z,100989.91
2022-11-26T02:05:30.459Z,100994.00
2022-11-26T02:06:01.885Z,100989.34
2022-11-26T02:06:33.317Z,100995.09
2022-11-26T02:07:04.751Z,100992.91
2022-11-26T02:07:36.242Z,100995.38
2022-11-26T02:08:07.761Z,100995.09
2022-11-26T02:08:39.196Z,100984.16
2022-11-26T02:09:10.735Z,100987.44
2022-11-26T02:09:42.158Z,100991.53
2022-11-26T02:10:13.621Z,100986.06
2022-11-26T02:10:45.134Z,100987.72
2022-11-26T02:11:16.640Z,100981.97
2022-11-26T02:11:48.246Z,100989.06
2022-11-26T02:12:19.869Z,100992.09
2022-11-26T02:12:51.417Z,100989.06
2022-11-26T02:13:22.921Z,100984.44
2022-11-26T02:13:54.337Z,100986.34
2022-11-26T02:14:25.775Z,100986.06
2022-11-26T02:14:57.191Z,100982.78
2022-11-26T02:15:28.623Z,100987.69
2022-11-26T02:16:00.083Z,100987.16
2022-11-26T02:16:31.601Z,100989.06
2022-11-26T02:17:03.027Z,100988.25
2022-11-26T02:17:34.444Z,100992.56
2022-11-26T02:18:05.841Z,100996.41
2022-11-26T02:18:37.236Z,100992.56
2022-11-26T02:19:08.638Z,100988.19
2022-11-26T02:19:40.096Z,100995.31
2022-11-26T02:20:11.491Z,100995.06
2022-11-26T02:20:42.944Z,100986.88
2022-11-26T02:21:14.409Z,100993.69
2022-11-26T02:21:45.827Z,100996.16
2022-11-26T02:22:17.242Z,101000.25
2022-11-26T02:22:48.711Z,100996.44
2022-11-26T02:23:20.138Z,100998.63
2022-11-26T02:23:51.497Z,100996.16
2022-11-26T02:24:22.918Z,100997.53
2022-11-26T02:24:54.332Z,101003.53
2022-11-26T02:25:25.714Z,100995.63
2022-11-26T02:25:57.122Z,100996.72
2022-11-26T02:26:28.583Z,101004.91
2022-11-26T02:27:00.037Z,101001.34
2022-11-26T02:27:31.501Z,101006.50
2022-11-26T02:28:02.956Z,101010.59
2022-11-26T02:28:34.332Z,101006.78
2022-11-26T02:29:05.756Z,101010.38
2022-11-26T02:29:37.159Z,101005.19
2022-11-26T02:30:08.604Z,101003.81
2022-11-26T02:30:40.046Z,100996.44
2022-11-26T02:31:11.525Z,101003.00
2022-11-26T02:31:43.115Z,101000.53
2022-11-26T02:32:14.557Z,101004.09
2022-11-26T02:32:45.993Z,100998.34
2022-11-26T02:33:17.397Z,100999.44
2022-11-26T02:33:48.788Z,101009.53
2022-11-26T02:34:20.159Z,100996.72
2022-11-26T02:34:51.576Z,101007.88
2022-11-26T02:35:22.955Z,101009.53
2022-11-26T02:35:54.319Z,101009.00
2022-11-26T02:36:25.739Z,101009.28
2022-11-26T02:36:57.201Z,101014.47
2022-11-26T02:37:28.635Z,101014.47
2022-11-26T02:38:00.149Z,101003.53
2022-11-26T02:38:31.551Z,101005.19
2022-11-26T02:39:03.040Z,101006.28
2022-11-26T02:39:34.484Z,101001.63
2022-11-26T02:40:05.986Z,101010.59
2022-11-26T02:40:37.425Z,101012.81
2022-11-26T02:41:08.825Z,101006.53
2022-11-26T02:41:40.213Z,101007.63
2022-11-26T02:42:11.674Z,101001.91
2022-11-26T02:42:43.076Z,100995.34
2022-11-26T02:43:14.491Z,100997.25
2022-11-26T02:43:45.888Z,100997.22
2022-11-26T02:44:17.297Z,100999.13
2022-11-26T02:44:48.697Z,100997.50
2022-11-26T02:45:20.111Z,100996.94
2022-11-26T02:45:51.640Z,101001.34
2022-11-26T02:46:23.168Z,100999.44
2022-11-26T02:46:54.722Z,101000.81
2022-11-26T02:47:26.250Z,101001.34
2022-11-26T02:47:57.692Z,101000.25
2022-11-26T02:48:29.108Z,100998.03
2022-11-26T02:49:00.522Z,100996.94
2022-11-26T02:49:31.919Z,100996.94
2022-11-26T02:50:03.320Z,100992.03
2022-11-26T02:50:34.726Z,100994.53
2022-11-26T02:51:06.248Z,100994.81
2022-11-26T02:51:37.637Z,101000.00
2022-11-26T02:52:09.013Z,100997.25
2022-11-26T02:52:40.468Z,101003.28
2022-11-26T02:53:11.959Z,100994.78
2022-11-26T02:53:43.350Z,100999.69
2022-11-26T02:54:14.822Z,100998.34
2022-11-26T02:54:46.201Z,100997.00
2022-11-26T02:55:17.602Z,100996.16
2022-11-26T02:55:49.030Z,100998.06
2022-11-26T02:56:20.419Z,101000.25
2022-11-26T02:56:51.834Z,100997.53
2022-11-26T02:57:23.236Z,101006.28
2022-11-26T02:57:54.669Z,101005.72
2022-11-26T02:58:26.095Z,101006.00
2022-11-26T02:58:57.551Z,101007.91
2022-11-26T02:59:28.967Z,101013.38
2022-11-26T03:00:00.435Z,101007.09
2022-11-26T03:00:31.886Z,101006.84
2022-11-26T03:01:03.470Z,101006.81
2022-11-26T03:01:34.969Z,101004.63
2022-11-26T03:02:06.382Z,101001.63
2022-11-26T03:02:37.784Z,101002.72
2022-11-26T03:03:09.280Z,101004.63
2022-11-26T03:03:40.688Z,101000.53
2022-11-26T03:04:12.192Z,101002.16
2022-11-26T03:04:43.687Z,100999.69
2022-11-26T03:05:15.102Z,100994.22
2022-11-26T03:05:46.580Z,100999.72
2022-11-26T03:06:17.964Z,101006.00
2022-11-26T03:06:49.383Z,100997.53
2022-11-26T03:07:20.824Z,101001.66
2022-11-26T03:07:52.337Z,100995.91
2022-11-26T03:08:23.862Z,100994.53
2022-11-26T03:08:55.242Z,100989.88
2022-11-26T03:09:26.595Z,100994.25
2022-11-26T03:09:58.007Z,100990.69
2022-11-26T03:10:29.396Z,101001.63
2022-11-26T03:11:00.856Z,100997.25
2022-11-26T03:11:32.316Z,100997.81
2022-11-26T03:12:03.913Z,100995.34
2022-11-26T03:12:35.402Z,100994.78
2022-11-26T03:13:06.836Z,100989.59
2022-11-26T03:13:38.313Z,100993.69
2022-11-26T03:14:09.693Z,100998.63
2022-11-26T03:14:41.160Z,100997.81
2022-11-26T03:15:12.580Z,100983.88
2022-11-26T03:15:44.003Z,100990.44
2022-11-26T03:16:15.518Z,100986.88
2022-11-26T03:16:47.017Z,100992.06
2022-11-26T03:17:18.477Z,100989.06
2022-11-26T03:17:49.901Z,100992.88
2022-11-26T03:18:21.309Z,100986.34
2022-11-26T03:18:52.798Z,100992.06
2022-11-26T03:19:24.186Z,100991.25
2022-11-26T03:19:55.575Z,100981.97
2022-11-26T03:20:26.993Z,100984.16
2022-11-26T03:20:58.422Z,100989.34
2022-11-26T03:21:29.797Z,100985.78
2022-11-26T03:22:01.270Z,100980.06
2022-11-26T03:22:32.718Z,100988.78
2022-11-26T03:23:04.131Z,100993.16
2022-11-26T03:23:35.556Z,100987.97
2022-11-26T03:24:06.994Z,100992.34
2022-11-26T03:24:38.749Z,100993.97
2022-11-26T03:25:10.299Z,100990.72
2022-11-26T03:25:41.730Z,100998.09
2022-11-26T03:26:13.135Z,100982.50
2022-11-26T03:26:44.547Z,100982.25
2022-11-26T03:27:15.953Z,100990.16
2022-11-26T03:27:47.382Z,100981.69
2022-11-26T03:28:18.806Z,100985.78
2022-11-26T03:28:50.214Z,100982.50
2022-11-26T03:29:21.646Z,100986.31
2022-11-26T03:29:53.084Z,100987.97
2022-11-26T03:30:24.487Z,100980.88
2022-11-26T03:30:55.906Z,100985.25
2022-11-26T03:31:27.442Z,100982.25
2022-11-26T03:31:59.016Z,100982.25
2022-11-26T03:32:30.464Z,100995.09
2022-11-26T03:33:01.853Z,100989.63
2022-11-26T03:33:33.269Z,100989.34
2022-11-26T03:34:04.646Z,100987.16
2022-11-26T03:34:36.345Z,100983.34
2022-11-26T03:35:08.075Z,100993.16
2022-11-26T03:35:39.461Z,100992.06
2022-11-26T03:36:10.952Z,100995.91
2022-11-26T03:36:42.451Z,100991.53
2022-11-26T03:37:13.886Z,100994.53
2022-11-26T03:37:45.325Z,100992.06
2022-11-26T03:38:16.768Z,100990.97
2022-11-26T03:38:48.176Z,100993.72
2022-11-26T03:39:19.650Z,100996.72
2022-11-26T03:39:51.152Z,100996.16
2022-11-26T03:40:22.621Z,100997.78
2022-11-26T03:40:54.026Z,100996.72
2022-11-26T03:41:25.421Z,100994.25
2022-11-26T03:41:56.892Z,100993.69
2022-11-26T03:42:28.328Z,101000.00
2022-11-26T03:42:59.812Z,101000.00
2022-11-26T03:43:31.261Z,101001.34
2022-11-26T03:44:02.673Z,101004.84
2022-11-26T03:44:34.113Z,100998.63
2022-11-26T03:45:05.521Z,100994.25
2022-11-26T03:45:37.029Z,101003.00
2022-11-26T03:46:08.553Z,100997.25
2022-11-26T03:46:40.034Z,100997.00
2022-11-26T03:47:11.502Z,100993.16
2022-11-26T03:47:42.968Z,100992.06
2022-11-26T03:48:14.376Z,100997.25
2022-11-26T03:48:45.786Z,100995.91
2022-11-26T03:49:17.195Z,100997.53
2022-11-26T03:49:48.660Z,100998.63
2022-11-26T03:50:20.063Z,100994.25
2022-11-26T03:50:51.479Z,100995.63
2022-11-26T03:51:23.140Z,100990.97
2022-11-26T03:51:54.641Z,100995.91
2022-11-26T03:52:26.066Z,100998.09
2022-11-26T03:52:57.437Z,100998.09
2022-11-26T03:53:28.854Z,101002.47
2022-11-26T03:54:00.267Z,100998.09
2022-11-26T03:54:31.679Z,101004.91
2022-11-26T03:55:03.106Z,100999.72
2022-11-26T03:55:34.546Z,100999.44
2022-11-26T03:56:05.955Z,101005.19
2022-11-26T03:56:37.373Z,101003.00
2022-11-26T03:57:08.855Z,100998.03
2022-11-26T03:57:40.260Z,100997.50
2022-11-26T03:58:11.687Z,101007.38
2022-11-26T03:58:43.086Z,100998.84
2022-11-26T03:59:14.509Z,101007.31
2022-11-26T03:59:45.933Z,101001.91
2022-11-26T04:00:17.356Z,100994.22
2022-11-26T04:00:48.815Z,101003.53
2022-11-26T04:01:20.254Z,101001.34
2022-11-26T04:01:51.852Z,101003.81
2022-11-26T04:02:23.452Z,101002.72
2022-11-26T04:02:54.881Z,101004.38
2022-11-26T04:03:26.411Z,101004.91
2022-11-26T04:03:57.918Z,101003.00
2022-11-26T04:04:29.302Z,101011.19
2022-11-26T04:05:00.705Z,101013.91
2022-11-26T04:05:32.115Z,101015.56
2022-11-26T04:06:03.493Z,101014.75
2022-11-26T04:06:34.898Z,101019.66
2022-11-26T04:07:06.289Z,101016.06
2022-11-26T04:07:37.828Z,101020.72
2022-11-26T04:08:09.290Z,101024.84
2022-11-26T04:08:40.683Z,101025.41
2022-11-26T04:09:12.084Z,101017.47
2022-11-26T04:09:43.488Z,101028.97
2022-11-26T04:10:14.943Z,101016.13
2022-11-26T04:10:46.385Z,101020.19
2022-11-26T04:11:17.822Z,101021.03
2022-11-26T04:11:49.321Z,101031.41
2022-11-26T04:12:20.749Z,101029.72
2022-11-26T04:12:52.223Z,101028.91
2022-11-26T04:13:23.658Z,101030.81
2022-11-26T04:13:55.054Z,101031.91
2022-11-26T04:14:26.497Z,101034.69
2022-11-26T04:14:57.920Z,101032.22
2022-11-26T04:15:29.359Z,101030.84
2022-11-26T04:16:00.750Z,101029.50
2022-11-26T04:16:32.265Z,101031.41
2022-11-26T04:17:03.803Z,101039.06
2022-11-26T04:17:35.244Z,101033.06
2022-11-26T04:18:06.682Z,101034.97
2022-11-26T04:18:38.112Z,101024.88
2022-11-26T04:19:09.486Z,101036.31
2022-11-26T04:19:40.942Z,101031.69
2022-11-26T04:20:12.341Z,101030.59
2022-11-26T04:20:43.788Z,101036.59
2022-11-26T04:21:15.163Z,101033.88
2022-11-26T04:21:46.564Z,101039.88
2022-11-26T04:22:18.038Z,101034.94
2022-11-26T04:22:49.457Z,101041.78
2022-11-26T04:23:20.946Z,101042.63
2022-11-26T04:23:52.421Z,101039.88
2022-11-26T04:24:23.872Z,101036.88
2022-11-26T04:24:55.308Z,101042.06
2022-11-26T04:25:26.738Z,101040.16
2022-11-26T04:25:58.151Z,101046.16
2022-11-26T04:26:29.520Z,101040.72
2022-11-26T04:27:00.960Z,101044.25
2022-11-26T04:27:32.336Z,101043.97
2022-11-26T04:28:03.768Z,101047.25
2022-11-26T04:28:35.254Z,101042.63
2022-11-26T04:29:06.650Z,101048.34
2022-11-26T04:29:38.111Z,101046.44
2022-11-26T04:30:09.575Z,101048.63
2022-11-26T04:30:40.995Z,101047.81
2022-11-26T04:31:12.480Z,101046.97
2022-11-26T04:31:44.020Z,101054.91
2022-11-26T04:32:15.503Z,101051.38
2022-11-26T04:32:46.895Z,101052.72
2022-11-26T04:33:18.278Z,101056.56
2022-11-26T04:33:49.739Z,101056.81
2022-11-26T04:34:21.116Z,101055.16
2022-11-26T04:34:52.512Z,101058.13
2022-11-26T04:35:23.884Z,101063.31
2022-11-26T04:35:55.301Z,101064.69
2022-11-26T04:36:26.694Z,101062.50
2022-11-26T04:36:58.109Z,101068.84
2022-11-26T04:37:29.544Z,101068.28
2022-11-26T04:38:00.942Z,101061.72
2022-11-26T04:38:32.374Z,101065.56
2022-11-26T04:39:03.884Z,101069.94
2022-11-26T04:39:35.231Z,101067.97
2022-11-26T04:40:06.619Z,101077.31
2022-11-26T04:40:38.019Z,101069.66
2022-11-26T04:41:09.389Z,101077.03
2022-11-26T04:41:40.779Z,101076.16
2022-11-26T04:42:12.204Z,101072.88
2022-11-26T04:42:43.608Z,101079.72
2022-11-26T04:43:15.067Z,101081.06
2022-11-26T04:43:46.496Z,101073.97
2022-11-26T04:44:17.997Z,101077.78
2022-11-26T04:44:49.382Z,101091.16
2022-11-26T04:45:20.783Z,101084.88
2022-11-26T04:45:52.273Z,101081.63
2022-11-26T04:46:23.708Z,101081.13
2022-11-26T04:46:55.150Z,101071.28
2022-11-26T04:47:26.582Z,101088.72
2022-11-26T04:47:57.972Z,101089.00
2022-11-26T04:48:29.378Z,101081.63
2022-11-26T04:49:00.768Z,101079.75
2022-11-26T04:49:32.228Z,101095.28
2022-11-26T04:50:03.646Z,101081.41
2022-11-26T04:50:35.048Z,101082.22
2022-11-26T04:51:06.474Z,101085.22
2022-11-26T04:51:37.884Z,101082.78
2022-11-26T04:52:09.296Z,101087.16
2022-11-26T04:52:40.733Z,101085.22
2022-11-26T04:53:12.113Z,101087.97
2022-11-26T04:53:43.535Z,101083.31
2022-11-26T04:54:14.973Z,101095.00
2022-11-26T04:54:46.536Z,101091.50
2022-11-26T04:55:17.956Z,101086.34
2022-11-26T04:55:49.349Z,101098.06
2022-11-26T04:56:20.742Z,101096.97
2022-11-26T04:56:52.177Z,101095.88
2022-11-26T04:57:23.592Z,101102.94
2022-11-26T04:57:58.068Z,101108.66
2022-11-26T04:58:29.505Z,101102.72
2022-11-26T04:59:00.922Z,101100.81
2022-11-26T04:59:32.290Z,101099.69
2022-11-26T05:00:03.750Z,101104.84
2022-11-26T05:00:35.224Z,101102.38
2022-11-26T05:01:06.624Z,101104.56
2022-11-26T05:01:38.239Z,101106.50
2022-11-26T05:02:09.704Z,101108.41
2022-11-26T05:02:41.274Z,101107.31
2022-11-26T05:03:12.693Z,101111.72
2022-11-26T05:03:44.156Z,101110.66
2022-11-26T05:04:15.578Z,101109.00
2022-11-26T05:04:46.976Z,101107.91
2022-11-26T05:05:18.366Z,101106.28
2022-11-26T05:05:49.766Z,101110.66
2022-11-26T05:06:21.165Z,101107.34
2022-11-26T05:06:52.689Z,101102.44
2022-11-26T05:07:24.203Z,101105.97
2022-11-26T05:07:55.704Z,101109.56
2022-11-26T05:08:27.110Z,101110.09
2022-11-26T05:08:58.575Z,101107.63
2022-11-26T05:09:30.023Z,101112.28
2022-11-26T05:10:01.532Z,101114.19
2022-11-26T05:10:32.954Z,101110.91
2022-11-26T05:11:04.398Z,101113.91
2022-11-26T05:11:35.806Z,101108.47
2022-11-26T05:12:07.226Z,101113.38
2022-11-26T05:12:38.694Z,101113.94
2022-11-26T05:13:10.123Z,101119.41
2022-11-26T05:13:41.543Z,101118.59
2022-11-26T05:14:12.932Z,101111.72
2022-11-26T05:14:44.333Z,101114.47
2022-11-26T05:15:15.749Z,101115.84
2022-11-26T05:15:47.139Z,101113.94
2022-11-26T05:16:18.615Z,101114.47
2022-11-26T05:16:50.149Z,101113.59
2022-11-26T05:17:21.580Z,101114.41
2022-11-26T05:17:53.052Z,101113.31
2022-11-26T05:18:24.424Z,101125.31
2022-11-26T05:18:55.898Z,101123.69
2022-11-26T05:19:27.367Z,101122.31
2022-11-26T05:19:58.752Z,101122.59
2022-11-26T05:20:30.284Z,101122.59
2022-11-26T05:21:01.684Z,101120.47
2022-11-26T05:21:33.135Z,101124.56
2022-11-26T05:22:04.594Z,101124.28
2022-11-26T05:22:35.997Z,101125.94
2022-11-26T05:23:07.425Z,101124.28
2022-11-26T05:23:38.858Z,101126.69
2022-11-26T05:24:10.257Z,101132.69
2022-11-26T05:24:41.630Z,101127.22
2022-11-26T05:25:13.052Z,101133.53
2022-11-26T05:25:44.575Z,101131.34
2022-11-26T05:26:15.989Z,101131.34
2022-11-26T05:26:50.087Z,101133.53
2022-11-26T05:27:23.825Z,101129.97
2022-11-26T05:27:55.220Z,101125.38
2022-11-26T05:28:26.686Z,101129.22
2022-11-26T05:28:58.172Z,101138.75
2022-11-26T05:29:29.602Z,101125.13
2022-11-26T05:30:01.020Z,101132.47
2022-11-26T05:30:32.396Z,101139.00
2022-11-26T05:31:03.835Z,101134.63
2022-11-26T05:31:35.290Z,101130.25
2022-11-26T05:32:06.843Z,101132.13
2022-11-26T05:32:38.249Z,101131.06
2022-11-26T05:33:09.655Z,101134.06
2022-11-26T05:33:41.122Z,101134.06
2022-11-26T05:34:12.509Z,101135.69
2022-11-26T05:34:43.946Z,101137.34
2022-11-26T05:35:15.361Z,101136.84
2022-11-26T05:35:46.764Z,101133.53
2022-11-26T05:36:18.163Z,101138.72
2022-11-26T05:36:49.660Z,101141.19
2022-11-26T05:37:21.086Z,101136.31
2022-11-26T05:37:52.511Z,101132.78
2022-11-26T05:38:23.923Z,101138.78
2022-11-26T05:38:55.418Z,101138.25
2022-11-26T05:39:26.801Z,101130.81
2022-11-26T05:39:58.228Z,101140.09
2022-11-26T05:40:29.664Z,101140.63
2022-11-26T05:41:01.025Z,101143.34
2022-11-26T05:41:32.414Z,101138.69
2022-11-26T05:42:08.966Z,101140.63
2022-11-26T05:42:40.890Z,101138.44
2022-11-26T05:43:12.308Z,101142.25
2022-11-26T05:43:43.756Z,101135.44
2022-11-26T05:44:15.142Z,101141.97
2022-11-26T05:44:46.575Z,101139.78
2022-11-26T05:45:17.957Z,101142.81
2022-11-26T05:45:49.493Z,101146.09
2022-11-26T05:46:21.030Z,101143.91
2022-11-26T05:46:52.514Z,101147.19
2022-11-26T05:47:23.915Z,101142.81
2022-11-26T05:47:55.348Z,101137.34
2022-11-26T05:48:26.753Z,101137.69
2022-11-26T05:48:58.276Z,101140.13
2022-11-26T05:49:29.673Z,101142.31
2022-11-26T05:50:01.050Z,101136.81
2022-11-26T05:50:32.437Z,101141.25
2022-11-26T05:51:03.833Z,101137.13
2022-11-26T05:51:35.260Z,101135.72
2022-11-26T05:52:06.657Z,101135.97
2022-11-26T05:52:38.076Z,101137.13
2022-11-26T05:53:09.597Z,101134.69
2022-11-26T05:53:41.032Z,101141.22
2022-11-26T05:54:12.495Z,101137.34
2022-11-26T05:54:43.940Z,101144.47
2022-11-26T05:55:15.388Z,101144.72
2022-11-26T05:55:46.809Z,101141.72
2022-11-26T05:56:18.229Z,101141.19
2022-11-26T05:56:49.653Z,101143.41
2022-11-26T05:57:21.054Z,101148.59
2022-11-26T05:57:52.473Z,101149.44
2022-11-26T05:58:23.886Z,101150.28
2022-11-26T05:58:55.249Z,101142.34